sensor_id;sensor_type;location;lat;lon;timestamp;P1;durP1;ratioP1;P2;durP2;ratioP2
36247;SDS011;22287;50.824;5.644;2022-12-07T00:01:15;19.85;;;12.88;;
36247;SDS011;22287;50.824;5.644;2022-12-07T00:03:44;16.33;;;10.88;;
36247;SDS011;22287;50.824;5.644;2022-12-07T00:06:13;16.58;;;9.95;;
36247;SDS011;22287;50.824;5.644;2022-12-07T00:08:40;18.10;;;11.10;;
36247;SDS011;22287;50.824;5.644;2022-12-07T00:11:11;18.40;;;10.70;;
36247;SDS011;22287;50.824;5.644;2022-12-07T00:13:46;19.70;;;10.70;;
36247;SDS011;22287;50.824;5.644;2022-12-07T00:16:14;18.50;;;10.88;;
36247;SDS011;22287;50.824;5.644;2022-12-07T00:18:43;18.67;;;11.68;;
36247;SDS011;22287;50.824;5.644;2022-12-07T00:23:46;22.08;;;12.30;;
36247;SDS011;22287;50.824;5.644;2022-12-07T00:26:16;23.08;;;13.75;;
36247;SDS011;22287;50.824;5.644;2022-12-07T00:28:45;20.35;;;12.95;;
36247;SDS011;22287;50.824;5.644;2022-12-07T00:31:13;21.80;;;12.38;;
36247;SDS011;22287;50.824;5.644;2022-12-07T00:33:41;20.48;;;12.35;;
36247;SDS011;22287;50.824;5.644;2022-12-07T00:36:09;19.88;;;12.73;;
36247;SDS011;22287;50.824;5.644;2022-12-07T00:38:38;22.63;;;12.55;;
36247;SDS011;22287;50.824;5.644;2022-12-07T00:41:06;21.77;;;12.85;;
36247;SDS011;22287;50.824;5.644;2022-12-07T00:43:37;23.13;;;12.90;;
36247;SDS011;22287;50.824;5.644;2022-12-07T00:46:05;25.10;;;14.25;;
36247;SDS011;22287;50.824;5.644;2022-12-07T00:48:32;24.00;;;14.10;;
36247;SDS011;22287;50.824;5.644;2022-12-07T00:50:59;22.13;;;13.50;;
36247;SDS011;22287;50.824;5.644;2022-12-07T00:53:26;20.00;;;12.82;;
36247;SDS011;22287;50.824;5.644;2022-12-07T00:55:53;23.70;;;14.35;;
36247;SDS011;22287;50.824;5.644;2022-12-07T00:58:22;24.20;;;13.90;;
36247;SDS011;22287;50.824;5.644;2022-12-07T01:00:50;19.55;;;12.95;;
36247;SDS011;22287;50.824;5.644;2022-12-07T01:03:17;18.92;;;12.57;;
36247;SDS011;22287;50.824;5.644;2022-12-07T01:05:53;20.15;;;12.45;;
36247;SDS011;22287;50.824;5.644;2022-12-07T01:08:22;19.83;;;12.43;;
36247;SDS011;22287;50.824;5.644;2022-12-07T01:10:57;21.42;;;12.98;;
36247;SDS011;22287;50.824;5.644;2022-12-07T01:13:27;22.17;;;13.25;;
36247;SDS011;22287;50.824;5.644;2022-12-07T01:15:58;21.15;;;13.68;;
36247;SDS011;22287;50.824;5.644;2022-12-07T01:21:00;26.02;;;14.15;;
36247;SDS011;22287;50.824;5.644;2022-12-07T01:23:30;19.60;;;12.50;;
36247;SDS011;22287;50.824;5.644;2022-12-07T01:25:59;24.15;;;13.00;;
36247;SDS011;22287;50.824;5.644;2022-12-07T01:28:27;21.30;;;13.43;;
36247;SDS011;22287;50.824;5.644;2022-12-07T01:31:01;20.88;;;13.98;;
36247;SDS011;22287;50.824;5.644;2022-12-07T01:33:32;23.25;;;14.57;;
36247;SDS011;22287;50.824;5.644;2022-12-07T01:36:04;24.83;;;15.50;;
36247;SDS011;22287;50.824;5.644;2022-12-07T01:38:39;26.27;;;15.05;;
36247;SDS011;22287;50.824;5.644;2022-12-07T01:41:06;27.30;;;15.88;;
36247;SDS011;22287;50.824;5.644;2022-12-07T01:43:33;27.70;;;16.15;;
36247;SDS011;22287;50.824;5.644;2022-12-07T01:46:01;26.58;;;15.30;;
36247;SDS011;22287;50.824;5.644;2022-12-07T01:48:37;28.23;;;16.48;;
36247;SDS011;22287;50.824;5.644;2022-12-07T01:51:10;29.30;;;16.40;;
36247;SDS011;22287;50.824;5.644;2022-12-07T01:53:41;26.83;;;17.00;;
36247;SDS011;22287;50.824;5.644;2022-12-07T01:56:14;28.88;;;16.73;;
36247;SDS011;22287;50.824;5.644;2022-12-07T01:58:46;41.30;;;16.75;;
36247;SDS011;22287;50.824;5.644;2022-12-07T02:01:14;28.40;;;15.55;;
36247;SDS011;22287;50.824;5.644;2022-12-07T02:03:42;25.17;;;14.73;;
36247;SDS011;22287;50.824;5.644;2022-12-07T02:06:11;32.10;;;17.48;;
36247;SDS011;22287;50.824;5.644;2022-12-07T02:08:42;25.73;;;16.42;;
36247;SDS011;22287;50.824;5.644;2022-12-07T02:11:09;27.85;;;16.27;;
36247;SDS011;22287;50.824;5.644;2022-12-07T02:13:37;27.30;;;16.30;;
36247;SDS011;22287;50.824;5.644;2022-12-07T02:30:45;24.83;;;14.90;;
36247;SDS011;22287;50.824;5.644;2022-12-07T02:36:06;20.65;;;13.00;;
36247;SDS011;22287;50.824;5.644;2022-12-07T02:38:43;22.92;;;13.98;;
36247;SDS011;22287;50.824;5.644;2022-12-07T02:41:18;21.90;;;13.68;;
36247;SDS011;22287;50.824;5.644;2022-12-07T02:43:53;19.13;;;13.77;;
36247;SDS011;22287;50.824;5.644;2022-12-07T02:46:25;22.23;;;14.27;;
36247;SDS011;22287;50.824;5.644;2022-12-07T02:48:56;25.00;;;13.82;;
36247;SDS011;22287;50.824;5.644;2022-12-07T02:51:29;20.80;;;14.45;;
36247;SDS011;22287;50.824;5.644;2022-12-07T02:56:29;23.95;;;13.82;;
36247;SDS011;22287;50.824;5.644;2022-12-07T03:02:31;22.63;;;14.25;;
36247;SDS011;22287;50.824;5.644;2022-12-07T03:10:57;21.33;;;14.05;;
36247;SDS011;22287;50.824;5.644;2022-12-07T03:13:28;23.67;;;15.25;;
36247;SDS011;22287;50.824;5.644;2022-12-07T03:18:48;24.92;;;15.50;;
36247;SDS011;22287;50.824;5.644;2022-12-07T03:21:20;28.67;;;17.10;;
36247;SDS011;22287;50.824;5.644;2022-12-07T03:23:51;27.25;;;16.08;;
36247;SDS011;22287;50.824;5.644;2022-12-07T03:26:24;26.98;;;16.90;;
36247;SDS011;22287;50.824;5.644;2022-12-07T03:28:57;27.05;;;16.83;;
36247;SDS011;22287;50.824;5.644;2022-12-07T03:31:29;28.52;;;17.65;;
36247;SDS011;22287;50.824;5.644;2022-12-07T03:34:01;28.58;;;17.55;;
36247;SDS011;22287;50.824;5.644;2022-12-07T03:36:42;28.20;;;17.65;;
36247;SDS011;22287;50.824;5.644;2022-12-07T03:39:22;31.27;;;17.90;;
36247;SDS011;22287;50.824;5.644;2022-12-07T03:41:51;36.17;;;20.75;;
36247;SDS011;22287;50.824;5.644;2022-12-07T03:44:19;31.90;;;19.38;;
36247;SDS011;22287;50.824;5.644;2022-12-07T03:46:50;31.35;;;18.25;;
36247;SDS011;22287;50.824;5.644;2022-12-07T03:49:23;32.67;;;18.77;;
36247;SDS011;22287;50.824;5.644;2022-12-07T03:57:18;34.17;;;18.52;;
36247;SDS011;22287;50.824;5.644;2022-12-07T03:59:46;32.65;;;18.70;;
36247;SDS011;22287;50.824;5.644;2022-12-07T04:02:14;36.08;;;20.42;;
36247;SDS011;22287;50.824;5.644;2022-12-07T04:04:42;33.65;;;19.10;;
36247;SDS011;22287;50.824;5.644;2022-12-07T04:07:09;30.63;;;18.45;;
36247;SDS011;22287;50.824;5.644;2022-12-07T04:09:37;33.30;;;19.95;;
36247;SDS011;22287;50.824;5.644;2022-12-07T04:12:04;32.17;;;18.58;;
36247;SDS011;22287;50.824;5.644;2022-12-07T04:14:31;31.52;;;19.33;;
36247;SDS011;22287;50.824;5.644;2022-12-07T04:16:58;36.17;;;20.58;;
36247;SDS011;22287;50.824;5.644;2022-12-07T04:19:26;30.38;;;18.67;;
36247;SDS011;22287;50.824;5.644;2022-12-07T04:21:57;29.92;;;19.50;;
36247;SDS011;22287;50.824;5.644;2022-12-07T04:24:25;34.55;;;20.20;;
36247;SDS011;22287;50.824;5.644;2022-12-07T04:26:53;34.63;;;21.42;;
36247;SDS011;22287;50.824;5.644;2022-12-07T04:29:20;38.75;;;21.25;;
36247;SDS011;22287;50.824;5.644;2022-12-07T04:31:47;31.13;;;18.88;;
36247;SDS011;22287;50.824;5.644;2022-12-07T04:34:15;35.33;;;20.45;;
36247;SDS011;22287;50.824;5.644;2022-12-07T04:36:43;31.98;;;19.80;;
36247;SDS011;22287;50.824;5.644;2022-12-07T04:39:18;30.33;;;19.38;;
36247;SDS011;22287;50.824;5.644;2022-12-07T04:41:55;33.97;;;19.35;;
36247;SDS011;22287;50.824;5.644;2022-12-07T04:44:23;32.22;;;19.50;;
36247;SDS011;22287;50.824;5.644;2022-12-07T04:46:52;33.72;;;20.13;;
36247;SDS011;22287;50.824;5.644;2022-12-07T04:49:20;31.88;;;19.30;;
36247;SDS011;22287;50.824;5.644;2022-12-07T04:51:47;27.15;;;17.98;;
36247;SDS011;22287;50.824;5.644;2022-12-07T04:54:14;29.70;;;18.17;;
36247;SDS011;22287;50.824;5.644;2022-12-07T04:56:43;33.85;;;19.38;;
36247;SDS011;22287;50.824;5.644;2022-12-07T04:59:10;28.40;;;18.17;;
36247;SDS011;22287;50.824;5.644;2022-12-07T05:01:38;28.48;;;17.77;;
36247;SDS011;22287;50.824;5.644;2022-12-07T05:04:05;31.13;;;18.52;;
36247;SDS011;22287;50.824;5.644;2022-12-07T05:06:33;35.15;;;18.58;;
36247;SDS011;22287;50.824;5.644;2022-12-07T05:09:00;30.00;;;17.95;;
36247;SDS011;22287;50.824;5.644;2022-12-07T05:11:27;28.58;;;17.65;;
36247;SDS011;22287;50.824;5.644;2022-12-07T05:14:07;25.40;;;16.42;;
36247;SDS011;22287;50.824;5.644;2022-12-07T05:16:37;27.88;;;17.50;;
36247;SDS011;22287;50.824;5.644;2022-12-07T05:19:05;27.17;;;16.55;;
36247;SDS011;22287;50.824;5.644;2022-12-07T05:21:33;28.60;;;16.77;;
36247;SDS011;22287;50.824;5.644;2022-12-07T05:24:00;25.33;;;15.27;;
36247;SDS011;22287;50.824;5.644;2022-12-07T05:26:27;28.63;;;16.58;;
36247;SDS011;22287;50.824;5.644;2022-12-07T05:28:54;26.77;;;16.48;;
36247;SDS011;22287;50.824;5.644;2022-12-07T05:31:22;24.20;;;15.55;;
36247;SDS011;22287;50.824;5.644;2022-12-07T05:33:50;23.95;;;15.30;;
36247;SDS011;22287;50.824;5.644;2022-12-07T05:36:17;23.75;;;15.30;;
36247;SDS011;22287;50.824;5.644;2022-12-07T05:38:44;25.08;;;15.38;;
36247;SDS011;22287;50.824;5.644;2022-12-07T05:41:12;25.77;;;15.23;;
36247;SDS011;22287;50.824;5.644;2022-12-07T05:44:02;22.27;;;15.75;;
36247;SDS011;22287;50.824;5.644;2022-12-07T05:46:30;30.33;;;17.40;;
36247;SDS011;22287;50.824;5.644;2022-12-07T05:48:56;30.92;;;17.45;;
36247;SDS011;22287;50.824;5.644;2022-12-07T05:51:23;25.40;;;15.45;;
36247;SDS011;22287;50.824;5.644;2022-12-07T05:53:50;25.70;;;16.02;;
36247;SDS011;22287;50.824;5.644;2022-12-07T05:56:17;26.98;;;16.55;;
36247;SDS011;22287;50.824;5.644;2022-12-07T05:58:44;27.48;;;17.33;;
36247;SDS011;22287;50.824;5.644;2022-12-07T06:01:29;27.63;;;16.15;;
36247;SDS011;22287;50.824;5.644;2022-12-07T06:03:56;29.08;;;17.13;;
36247;SDS011;22287;50.824;5.644;2022-12-07T06:06:23;27.30;;;16.70;;
36247;SDS011;22287;50.824;5.644;2022-12-07T06:08:50;29.13;;;17.33;;
36247;SDS011;22287;50.824;5.644;2022-12-07T06:11:17;34.03;;;17.55;;
36247;SDS011;22287;50.824;5.644;2022-12-07T06:14:02;31.85;;;18.38;;
36247;SDS011;22287;50.824;5.644;2022-12-07T06:16:29;28.92;;;17.33;;
36247;SDS011;22287;50.824;5.644;2022-12-07T06:18:56;29.50;;;16.75;;
36247;SDS011;22287;50.824;5.644;2022-12-07T06:21:23;28.48;;;16.85;;
36247;SDS011;22287;50.824;5.644;2022-12-07T06:23:52;27.98;;;17.40;;
36247;SDS011;22287;50.824;5.644;2022-12-07T06:26:19;27.77;;;16.55;;
36247;SDS011;22287;50.824;5.644;2022-12-07T06:28:46;28.77;;;17.05;;
36247;SDS011;22287;50.824;5.644;2022-12-07T06:31:13;30.17;;;17.67;;
36247;SDS011;22287;50.824;5.644;2022-12-07T06:33:40;32.30;;;17.63;;
36247;SDS011;22287;50.824;5.644;2022-12-07T06:36:08;29.88;;;17.73;;
36247;SDS011;22287;50.824;5.644;2022-12-07T06:38:35;32.58;;;17.58;;
36247;SDS011;22287;50.824;5.644;2022-12-07T06:41:02;29.40;;;17.67;;
36247;SDS011;22287;50.824;5.644;2022-12-07T06:43:30;30.08;;;17.23;;
36247;SDS011;22287;50.824;5.644;2022-12-07T06:45:57;31.42;;;18.33;;
36247;SDS011;22287;50.824;5.644;2022-12-07T06:48:24;31.83;;;17.50;;
36247;SDS011;22287;50.824;5.644;2022-12-07T06:50:51;30.92;;;17.50;;
36247;SDS011;22287;50.824;5.644;2022-12-07T06:53:20;33.20;;;17.75;;
36247;SDS011;22287;50.824;5.644;2022-12-07T06:55:47;34.97;;;20.40;;
36247;SDS011;22287;50.824;5.644;2022-12-07T06:58:13;31.23;;;18.05;;
36247;SDS011;22287;50.824;5.644;2022-12-07T07:00:40;30.55;;;17.52;;
36247;SDS011;22287;50.824;5.644;2022-12-07T07:03:07;32.58;;;18.35;;
36247;SDS011;22287;50.824;5.644;2022-12-07T07:05:34;28.55;;;17.65;;
36247;SDS011;22287;50.824;5.644;2022-12-07T07:08:01;30.33;;;18.55;;
36247;SDS011;22287;50.824;5.644;2022-12-07T07:10:47;34.17;;;17.92;;
36247;SDS011;22287;50.824;5.644;2022-12-07T07:13:14;31.33;;;18.20;;
36247;SDS011;22287;50.824;5.644;2022-12-07T07:15:41;29.15;;;17.52;;
36247;SDS011;22287;50.824;5.644;2022-12-07T07:18:08;33.35;;;20.65;;
36247;SDS011;22287;50.824;5.644;2022-12-07T07:20:35;35.00;;;20.08;;
36247;SDS011;22287;50.824;5.644;2022-12-07T07:23:03;33.10;;;19.85;;
36247;SDS011;22287;50.824;5.644;2022-12-07T07:25:31;35.80;;;19.63;;
36247;SDS011;22287;50.824;5.644;2022-12-07T07:27:58;30.75;;;18.20;;
36247;SDS011;22287;50.824;5.644;2022-12-07T07:30:25;34.55;;;19.75;;
36247;SDS011;22287;50.824;5.644;2022-12-07T07:32:56;32.78;;;19.20;;
36247;SDS011;22287;50.824;5.644;2022-12-07T07:35:25;30.58;;;17.38;;
36247;SDS011;22287;50.824;5.644;2022-12-07T07:37:52;31.65;;;17.88;;
36247;SDS011;22287;50.824;5.644;2022-12-07T07:40:19;32.20;;;17.38;;
36247;SDS011;22287;50.824;5.644;2022-12-07T07:42:52;33.13;;;18.45;;
36247;SDS011;22287;50.824;5.644;2022-12-07T07:45:20;30.90;;;17.23;;
36247;SDS011;22287;50.824;5.644;2022-12-07T07:47:48;27.65;;;17.88;;
36247;SDS011;22287;50.824;5.644;2022-12-07T07:50:15;28.60;;;17.83;;
36247;SDS011;22287;50.824;5.644;2022-12-07T07:52:42;31.30;;;19.13;;
36247;SDS011;22287;50.824;5.644;2022-12-07T07:55:10;27.35;;;16.45;;
36247;SDS011;22287;50.824;5.644;2022-12-07T07:57:38;29.13;;;17.70;;
36247;SDS011;22287;50.824;5.644;2022-12-07T08:00:07;31.15;;;18.15;;
36247;SDS011;22287;50.824;5.644;2022-12-07T08:02:38;32.58;;;18.80;;
36247;SDS011;22287;50.824;5.644;2022-12-07T08:05:06;28.65;;;17.10;;
36247;SDS011;22287;50.824;5.644;2022-12-07T08:07:33;27.17;;;16.23;;
36247;SDS011;22287;50.824;5.644;2022-12-07T08:10:00;26.52;;;16.60;;
36247;SDS011;22287;50.824;5.644;2022-12-07T08:12:27;27.45;;;16.08;;
36247;SDS011;22287;50.824;5.644;2022-12-07T08:14:54;26.52;;;15.18;;
36247;SDS011;22287;50.824;5.644;2022-12-07T08:17:21;22.65;;;14.43;;
36247;SDS011;22287;50.824;5.644;2022-12-07T08:19:47;23.20;;;14.32;;
36247;SDS011;22287;50.824;5.644;2022-12-07T08:22:14;25.90;;;15.18;;
36247;SDS011;22287;50.824;5.644;2022-12-07T08:24:41;24.00;;;13.38;;
36247;SDS011;22287;50.824;5.644;2022-12-07T08:27:07;26.13;;;13.75;;
36247;SDS011;22287;50.824;5.644;2022-12-07T08:29:34;23.75;;;13.95;;
36247;SDS011;22287;50.824;5.644;2022-12-07T08:32:01;19.67;;;12.40;;
36247;SDS011;22287;50.824;5.644;2022-12-07T08:34:33;20.85;;;12.98;;
36247;SDS011;22287;50.824;5.644;2022-12-07T08:37:00;24.80;;;13.40;;
36247;SDS011;22287;50.824;5.644;2022-12-07T08:39:27;23.98;;;13.30;;
36247;SDS011;22287;50.824;5.644;2022-12-07T08:41:57;21.55;;;13.05;;
36247;SDS011;22287;50.824;5.644;2022-12-07T08:44:24;21.25;;;13.20;;
36247;SDS011;22287;50.824;5.644;2022-12-07T08:46:53;23.73;;;13.05;;
36247;SDS011;22287;50.824;5.644;2022-12-07T08:49:30;23.10;;;13.20;;
36247;SDS011;22287;50.824;5.644;2022-12-07T08:52:02;22.60;;;13.20;;
36247;SDS011;22287;50.824;5.644;2022-12-07T08:54:31;23.30;;;12.45;;
36247;SDS011;22287;50.824;5.644;2022-12-07T08:57:02;27.02;;;14.80;;
36247;SDS011;22287;50.824;5.644;2022-12-07T08:59:29;25.20;;;15.02;;
36247;SDS011;22287;50.824;5.644;2022-12-07T09:01:56;27.63;;;15.50;;
36247;SDS011;22287;50.824;5.644;2022-12-07T09:04:23;24.25;;;15.50;;
36247;SDS011;22287;50.824;5.644;2022-12-07T09:06:50;25.88;;;15.05;;
36247;SDS011;22287;50.824;5.644;2022-12-07T09:09:17;25.80;;;14.20;;
36247;SDS011;22287;50.824;5.644;2022-12-07T09:11:44;21.02;;;13.68;;
36247;SDS011;22287;50.824;5.644;2022-12-07T09:14:11;26.55;;;14.40;;
36247;SDS011;22287;50.824;5.644;2022-12-07T09:16:39;28.52;;;14.60;;
36247;SDS011;22287;50.824;5.644;2022-12-07T09:19:07;28.00;;;15.38;;
36247;SDS011;22287;50.824;5.644;2022-12-07T09:21:34;26.23;;;15.05;;
36247;SDS011;22287;50.824;5.644;2022-12-07T09:24:01;23.38;;;15.00;;
36247;SDS011;22287;50.824;5.644;2022-12-07T09:26:28;28.92;;;16.75;;
36247;SDS011;22287;50.824;5.644;2022-12-07T09:28:55;23.27;;;14.93;;
36247;SDS011;22287;50.824;5.644;2022-12-07T09:31:22;22.60;;;14.57;;
36247;SDS011;22287;50.824;5.644;2022-12-07T09:33:57;22.98;;;15.23;;
36247;SDS011;22287;50.824;5.644;2022-12-07T09:36:25;26.35;;;14.98;;
36247;SDS011;22287;50.824;5.644;2022-12-07T09:38:54;25.02;;;14.68;;
36247;SDS011;22287;50.824;5.644;2022-12-07T09:41:21;24.40;;;14.45;;
36247;SDS011;22287;50.824;5.644;2022-12-07T09:43:49;26.75;;;14.23;;
36247;SDS011;22287;50.824;5.644;2022-12-07T09:46:16;28.15;;;14.02;;
36247;SDS011;22287;50.824;5.644;2022-12-07T09:48:45;22.23;;;12.98;;
36247;SDS011;22287;50.824;5.644;2022-12-07T09:51:18;19.67;;;12.38;;
36247;SDS011;22287;50.824;5.644;2022-12-07T09:53:51;22.17;;;12.43;;
36247;SDS011;22287;50.824;5.644;2022-12-07T09:56:20;21.60;;;13.70;;
36247;SDS011;22287;50.824;5.644;2022-12-07T09:58:48;21.73;;;12.20;;
36247;SDS011;22287;50.824;5.644;2022-12-07T10:01:19;25.92;;;14.05;;
36247;SDS011;22287;50.824;5.644;2022-12-07T10:03:52;20.77;;;12.65;;
36247;SDS011;22287;50.824;5.644;2022-12-07T10:06:21;20.17;;;11.18;;
36247;SDS011;22287;50.824;5.644;2022-12-07T10:08:48;19.15;;;11.60;;
36247;SDS011;22287;50.824;5.644;2022-12-07T10:11:14;19.40;;;11.73;;
36247;SDS011;22287;50.824;5.644;2022-12-07T10:13:44;19.27;;;12.07;;
36247;SDS011;22287;50.824;5.644;2022-12-07T10:18:52;19.17;;;11.98;;
36247;SDS011;22287;50.824;5.644;2022-12-07T10:21:20;16.70;;;10.65;;
36247;SDS011;22287;50.824;5.644;2022-12-07T10:26:40;18.52;;;11.88;;
36247;SDS011;22287;50.824;5.644;2022-12-07T10:34:41;22.98;;;12.13;;
36247;SDS011;22287;50.824;5.644;2022-12-07T10:42:24;17.80;;;10.20;;
36247;SDS011;22287;50.824;5.644;2022-12-07T10:48:02;18.30;;;11.88;;
36247;SDS011;22287;50.824;5.644;2022-12-07T11:13:40;13.57;;;8.27;;
36247;SDS011;22287;50.824;5.644;2022-12-07T11:19:20;15.70;;;8.57;;
36247;SDS011;22287;50.824;5.644;2022-12-07T11:22:00;20.33;;;10.18;;
36247;SDS011;22287;50.824;5.644;2022-12-07T11:27:55;14.57;;;8.45;;
36247;SDS011;22287;50.824;5.644;2022-12-07T11:36:50;15.05;;;8.18;;
36247;SDS011;22287;50.824;5.644;2022-12-07T11:39:39;14.80;;;8.63;;
36247;SDS011;22287;50.824;5.644;2022-12-07T11:42:16;11.15;;;7.80;;
36247;SDS011;22287;50.824;5.644;2022-12-07T11:44:56;14.98;;;8.60;;
36247;SDS011;22287;50.824;5.644;2022-12-07T11:50:26;13.88;;;6.97;;
36247;SDS011;22287;50.824;5.644;2022-12-07T11:58:23;13.98;;;7.68;;
36247;SDS011;22287;50.824;5.644;2022-12-07T12:06:39;12.02;;;6.85;;
36247;SDS011;22287;50.824;5.644;2022-12-07T12:21:00;14.88;;;8.02;;
36247;SDS011;22287;50.824;5.644;2022-12-07T12:23:44;15.35;;;7.20;;
36247;SDS011;22287;50.824;5.644;2022-12-07T12:26:16;11.80;;;7.25;;
36247;SDS011;22287;50.824;5.644;2022-12-07T12:28:54;14.27;;;7.55;;
36247;SDS011;22287;50.824;5.644;2022-12-07T12:33:49;12.90;;;8.02;;
36247;SDS011;22287;50.824;5.644;2022-12-07T12:47:03;13.10;;;8.30;;
36247;SDS011;22287;50.824;5.644;2022-12-07T12:57:36;10.40;;;6.10;;
36247;SDS011;22287;50.824;5.644;2022-12-07T13:00:15;13.48;;;6.85;;
36247;SDS011;22287;50.824;5.644;2022-12-07T13:05:16;14.43;;;6.80;;
36247;SDS011;22287;50.824;5.644;2022-12-07T13:15:42;9.60;;;5.72;;
36247;SDS011;22287;50.824;5.644;2022-12-07T13:28:47;10.18;;;4.82;;
36247;SDS011;22287;50.824;5.644;2022-12-07T13:31:25;10.05;;;4.90;;
36247;SDS011;22287;50.824;5.644;2022-12-07T13:33:53;9.52;;;5.68;;
36247;SDS011;22287;50.824;5.644;2022-12-07T13:36:30;8.63;;;4.88;;
36247;SDS011;22287;50.824;5.644;2022-12-07T13:42:07;15.30;;;5.07;;
36247;SDS011;22287;50.824;5.644;2022-12-07T13:44:41;11.48;;;5.22;;
36247;SDS011;22287;50.824;5.644;2022-12-07T13:49:55;11.60;;;5.22;;
36247;SDS011;22287;50.824;5.644;2022-12-07T13:57:33;11.27;;;5.95;;
36247;SDS011;22287;50.824;5.644;2022-12-07T14:00:16;8.13;;;4.55;;
36247;SDS011;22287;50.824;5.644;2022-12-07T14:05:24;10.88;;;5.00;;
36247;SDS011;22287;50.824;5.644;2022-12-07T14:10:35;9.18;;;5.28;;
36247;SDS011;22287;50.824;5.644;2022-12-07T14:15:50;10.82;;;5.22;;
36247;SDS011;22287;50.824;5.644;2022-12-07T14:18:29;10.07;;;5.30;;
36247;SDS011;22287;50.824;5.644;2022-12-07T14:23:43;12.00;;;5.50;;
36247;SDS011;22287;50.824;5.644;2022-12-07T14:26:12;14.85;;;5.72;;
36247;SDS011;22287;50.824;5.644;2022-12-07T14:28:46;8.68;;;4.65;;
36247;SDS011;22287;50.824;5.644;2022-12-07T14:31:14;12.55;;;5.35;;
36247;SDS011;22287;50.824;5.644;2022-12-07T14:33:51;11.18;;;4.97;;
36247;SDS011;22287;50.824;5.644;2022-12-07T14:36:18;7.40;;;5.45;;
36247;SDS011;22287;50.824;5.644;2022-12-07T14:38:44;10.95;;;5.15;;
36247;SDS011;22287;50.824;5.644;2022-12-07T14:41:23;10.73;;;5.32;;
36247;SDS011;22287;50.824;5.644;2022-12-07T14:44:12;7.55;;;5.10;;
36247;SDS011;22287;50.824;5.644;2022-12-07T14:46:49;12.50;;;5.43;;
36247;SDS011;22287;50.824;5.644;2022-12-07T14:49:37;9.70;;;5.70;;
36247;SDS011;22287;50.824;5.644;2022-12-07T14:52:04;8.18;;;5.18;;
36247;SDS011;22287;50.824;5.644;2022-12-07T14:54:52;9.55;;;4.72;;
36247;SDS011;22287;50.824;5.644;2022-12-07T14:57:20;6.60;;;4.65;;
36247;SDS011;22287;50.824;5.644;2022-12-07T14:59:47;6.13;;;3.80;;
36247;SDS011;22287;50.824;5.644;2022-12-07T15:02:14;7.50;;;3.17;;
36247;SDS011;22287;50.824;5.644;2022-12-07T15:04:42;5.28;;;3.08;;
36247;SDS011;22287;50.824;5.644;2022-12-07T15:07:10;5.07;;;2.40;;
36247;SDS011;22287;50.824;5.644;2022-12-07T15:09:44;5.45;;;2.15;;
36247;SDS011;22287;50.824;5.644;2022-12-07T15:12:12;6.68;;;2.33;;
36247;SDS011;22287;50.824;5.644;2022-12-07T15:14:38;7.15;;;1.83;;
36247;SDS011;22287;50.824;5.644;2022-12-07T15:17:05;4.53;;;2.20;;
36247;SDS011;22287;50.824;5.644;2022-12-07T15:19:35;6.43;;;2.08;;
36247;SDS011;22287;50.824;5.644;2022-12-07T15:22:01;5.35;;;2.05;;
36247;SDS011;22287;50.824;5.644;2022-12-07T15:24:28;6.70;;;2.75;;
36247;SDS011;22287;50.824;5.644;2022-12-07T15:26:55;4.80;;;2.13;;
36247;SDS011;22287;50.824;5.644;2022-12-07T15:29:22;7.13;;;2.42;;
36247;SDS011;22287;50.824;5.644;2022-12-07T15:31:50;5.50;;;2.15;;
36247;SDS011;22287;50.824;5.644;2022-12-07T15:34:23;6.25;;;2.72;;
36247;SDS011;22287;50.824;5.644;2022-12-07T15:36:51;6.18;;;2.90;;
36247;SDS011;22287;50.824;5.644;2022-12-07T15:39:18;6.65;;;2.97;;
36247;SDS011;22287;50.824;5.644;2022-12-07T15:41:45;9.55;;;4.15;;
36247;SDS011;22287;50.824;5.644;2022-12-07T15:44:12;5.78;;;2.90;;
36247;SDS011;22287;50.824;5.644;2022-12-07T15:46:58;8.30;;;3.63;;
36247;SDS011;22287;50.824;5.644;2022-12-07T15:49:26;7.60;;;3.80;;
36247;SDS011;22287;50.824;5.644;2022-12-07T15:51:53;11.38;;;4.22;;
36247;SDS011;22287;50.824;5.644;2022-12-07T15:54:21;6.90;;;3.72;;
36247;SDS011;22287;50.824;5.644;2022-12-07T15:56:55;5.40;;;4.15;;
36247;SDS011;22287;50.824;5.644;2022-12-07T15:59:23;5.57;;;3.20;;
36247;SDS011;22287;50.824;5.644;2022-12-07T16:01:51;12.10;;;3.95;;
36247;SDS011;22287;50.824;5.644;2022-12-07T16:04:18;7.03;;;3.70;;
36247;SDS011;22287;50.824;5.644;2022-12-07T16:06:45;7.38;;;4.70;;
36247;SDS011;22287;50.824;5.644;2022-12-07T16:09:12;9.88;;;4.75;;
36247;SDS011;22287;50.824;5.644;2022-12-07T16:11:39;10.57;;;4.90;;
36247;SDS011;22287;50.824;5.644;2022-12-07T16:14:06;10.43;;;5.65;;
36247;SDS011;22287;50.824;5.644;2022-12-07T16:16:33;10.98;;;5.38;;
36247;SDS011;22287;50.824;5.644;2022-12-07T16:19:00;9.95;;;5.47;;
36247;SDS011;22287;50.824;5.644;2022-12-07T16:21:27;10.57;;;6.53;;
36247;SDS011;22287;50.824;5.644;2022-12-07T16:23:53;8.60;;;6.00;;
36247;SDS011;22287;50.824;5.644;2022-12-07T16:26:23;13.02;;;7.28;;
36247;SDS011;22287;50.824;5.644;2022-12-07T16:28:50;11.82;;;6.53;;
36247;SDS011;22287;50.824;5.644;2022-12-07T16:31:20;12.30;;;6.95;;
36247;SDS011;22287;50.824;5.644;2022-12-07T16:33:49;15.48;;;6.57;;
36247;SDS011;22287;50.824;5.644;2022-12-07T16:36:17;14.00;;;7.43;;
36247;SDS011;22287;50.824;5.644;2022-12-07T16:39:04;14.43;;;7.15;;
36247;SDS011;22287;50.824;5.644;2022-12-07T16:41:32;14.02;;;8.10;;
36247;SDS011;22287;50.824;5.644;2022-12-07T16:44:03;14.38;;;7.95;;
36247;SDS011;22287;50.824;5.644;2022-12-07T16:46:32;14.43;;;8.32;;
36247;SDS011;22287;50.824;5.644;2022-12-07T16:48:59;12.95;;;6.85;;
36247;SDS011;22287;50.824;5.644;2022-12-07T16:51:27;11.65;;;7.22;;
36247;SDS011;22287;50.824;5.644;2022-12-07T16:53:53;10.52;;;6.60;;
36247;SDS011;22287;50.824;5.644;2022-12-07T16:56:20;8.85;;;6.47;;
36247;SDS011;22287;50.824;5.644;2022-12-07T16:58:47;9.90;;;6.00;;
36247;SDS011;22287;50.824;5.644;2022-12-07T17:01:16;12.07;;;6.68;;
36247;SDS011;22287;50.824;5.644;2022-12-07T17:03:45;7.93;;;5.72;;
36247;SDS011;22287;50.824;5.644;2022-12-07T17:06:21;9.07;;;6.25;;
36247;SDS011;22287;50.824;5.644;2022-12-07T17:08:52;6.57;;;4.53;;
36247;SDS011;22287;50.824;5.644;2022-12-07T17:11:23;8.13;;;4.68;;
36247;SDS011;22287;50.824;5.644;2022-12-07T17:13:54;9.48;;;4.35;;
36247;SDS011;22287;50.824;5.644;2022-12-07T17:16:39;8.43;;;4.78;;
36247;SDS011;22287;50.824;5.644;2022-12-07T17:19:07;6.65;;;3.97;;
36247;SDS011;22287;50.824;5.644;2022-12-07T17:21:35;8.10;;;4.30;;
36247;SDS011;22287;50.824;5.644;2022-12-07T17:24:04;7.25;;;3.88;;
36247;SDS011;22287;50.824;5.644;2022-12-07T17:26:33;9.15;;;4.57;;
36247;SDS011;22287;50.824;5.644;2022-12-07T17:29:02;7.72;;;4.50;;
36247;SDS011;22287;50.824;5.644;2022-12-07T17:31:29;6.20;;;4.18;;
36247;SDS011;22287;50.824;5.644;2022-12-07T17:33:56;6.05;;;3.95;;
36247;SDS011;22287;50.824;5.644;2022-12-07T17:36:27;8.32;;;4.20;;
36247;SDS011;22287;50.824;5.644;2022-12-07T17:38:55;5.35;;;3.67;;
36247;SDS011;22287;50.824;5.644;2022-12-07T17:41:24;6.45;;;4.32;;
36247;SDS011;22287;50.824;5.644;2022-12-07T17:44:12;7.82;;;4.75;;
36247;SDS011;22287;50.824;5.644;2022-12-07T17:46:41;7.90;;;4.28;;
36247;SDS011;22287;50.824;5.644;2022-12-07T17:49:07;7.85;;;4.90;;
36247;SDS011;22287;50.824;5.644;2022-12-07T17:51:34;7.70;;;4.57;;